createdAt,value
2023-10-05T00:02:21.392Z,21.67
2023-10-05T00:04:51.742Z,21.83
2023-10-05T00:07:23.444Z,18.48
2023-10-05T00:09:52.434Z,23.77
2023-10-05T00:12:23.549Z,14.48
2023-10-05T00:15:03.098Z,18.90
2023-10-05T00:17:32.296Z,20.35
2023-10-05T00:20:00.420Z,25.88
2023-10-05T00:22:28.026Z,14.52
2023-10-05T00:24:57.601Z,19.00
2023-10-05T00:27:27.518Z,18.98
2023-10-05T00:29:58.558Z,21.75
2023-10-05T00:32:35.441Z,19.25
2023-10-05T00:35:16.092Z,19.42
2023-10-05T00:37:46.877Z,21.02
2023-10-05T00:40:31.163Z,16.80
2023-10-05T00:43:03.351Z,21.80
2023-10-05T00:45:32.808Z,15.82
2023-10-05T00:48:10.188Z,18.55
2023-10-05T00:50:38.348Z,20.33
2023-10-05T00:53:09.085Z,15.55
2023-10-05T00:55:40.355Z,18.50
2023-10-05T00:58:16.069Z,23.35
2023-10-05T01:00:51.768Z,19.17
2023-10-05T01:03:24.603Z,19.52
2023-10-05T01:06:06.869Z,17.98
2023-10-05T01:08:35.182Z,21.25
2023-10-05T01:11:04.235Z,14.57
2023-10-05T01:13:33.423Z,17.98
2023-10-05T01:16:06.658Z,20.17
2023-10-05T01:18:34.270Z,17.83
2023-10-05T01:21:04.084Z,22.55
2023-10-05T01:23:39.530Z,17.63
2023-10-05T01:26:11.773Z,20.42
2023-10-05T01:28:40.426Z,24.58
2023-10-05T01:31:17.866Z,18.13
2023-10-05T01:33:46.865Z,18.70
2023-10-05T01:36:17.060Z,16.90
2023-10-05T01:38:46.301Z,16.48
2023-10-05T01:41:17.530Z,14.43
2023-10-05T01:43:44.983Z,19.95
2023-10-05T01:46:13.133Z,23.10
2023-10-05T01:48:42.137Z,19.27
2023-10-05T01:51:11.650Z,20.02
2023-10-05T01:53:40.916Z,20.60
2023-10-05T01:56:18.768Z,24.40
2023-10-05T01:58:51.334Z,21.77
2023-10-05T02:01:21.780Z,21.47
2023-10-05T02:03:51.396Z,23.58
2023-10-05T02:06:19.446Z,17.23
2023-10-05T02:08:46.851Z,16.40
2023-10-05T02:11:20.045Z,16.35
2023-10-05T02:13:48.113Z,19.63
2023-10-05T02:16:19.076Z,20.80
2023-10-05T02:18:48.816Z,17.83
2023-10-05T02:21:30.885Z,17.77
2023-10-05T02:24:02.858Z,21.58
2023-10-05T02:26:35.584Z,18.15
2023-10-05T02:29:14.875Z,21.58
2023-10-05T02:31:58.404Z,20.73
2023-10-05T02:34:28.896Z,17.70
2023-10-05T02:36:57.775Z,18.23
2023-10-05T02:39:25.813Z,16.42
2023-10-05T02:41:55.551Z,19.67
2023-10-05T02:44:29.613Z,20.45
2023-10-05T02:49:25.611Z,18.83
2023-10-05T02:51:54.163Z,20.05
2023-10-05T02:54:23.286Z,15.95
2023-10-05T02:56:50.905Z,19.63
2023-10-05T02:59:21.769Z,16.45
2023-10-05T03:01:49.842Z,17.98
2023-10-05T03:04:22.893Z,21.17
2023-10-05T03:06:54.067Z,15.13
2023-10-05T03:09:22.987Z,19.77
2023-10-05T03:11:50.900Z,17.50
2023-10-05T03:14:19.760Z,19.48
2023-10-05T03:16:49.906Z,19.15
2023-10-05T03:19:22.415Z,17.60
2023-10-05T03:21:53.994Z,16.13
2023-10-05T03:24:25.931Z,15.63
2023-10-05T03:26:53.946Z,18.40
2023-10-05T03:29:23.703Z,18.55
2023-10-05T03:31:55.469Z,21.98
2023-10-05T03:34:27.157Z,14.75
2023-10-05T03:36:54.984Z,20.15
2023-10-05T03:39:24.251Z,13.75
2023-10-05T03:41:51.891Z,16.90
2023-10-05T03:44:19.392Z,21.83
2023-10-05T03:46:48.244Z,18.33
2023-10-05T03:49:16.802Z,16.00
2023-10-05T03:51:50.681Z,23.30
2023-10-05T03:54:19.913Z,17.65
2023-10-05T03:56:51.579Z,17.25
2023-10-05T03:59:19.147Z,21.42
2023-10-05T04:01:50.137Z,18.67
2023-10-05T04:04:18.003Z,15.35
2023-10-05T04:06:45.718Z,18.08
2023-10-05T04:09:16.866Z,19.70
2023-10-05T04:11:45.448Z,19.25
2023-10-05T04:14:13.634Z,18.25
2023-10-05T04:16:41.046Z,19.40
2023-10-05T04:19:12.265Z,19.63
2023-10-05T04:21:40.965Z,19.50
2023-10-05T04:24:09.130Z,20.30
2023-10-05T04:26:38.754Z,18.52
2023-10-05T04:29:08.529Z,19.63
2023-10-05T04:31:37.373Z,22.30
2023-10-05T04:34:06.864Z,20.55
2023-10-05T04:36:36.156Z,21.23
2023-10-05T04:39:06.107Z,21.67
2023-10-05T04:41:35.918Z,20.23
2023-10-05T04:44:07.836Z,22.17
2023-10-05T04:46:35.323Z,18.52
2023-10-05T04:49:09.761Z,22.50
2023-10-05T04:51:40.183Z,21.30
2023-10-05T04:54:08.473Z,23.75
2023-10-05T04:56:44.493Z,19.05
2023-10-05T04:59:37.839Z,21.05
2023-10-05T05:02:19.805Z,17.67
2023-10-05T05:05:08.871Z,23.05
2023-10-05T05:07:38.308Z,17.02
2023-10-05T05:10:07.505Z,20.52
2023-10-05T05:12:36.419Z,22.10
2023-10-05T05:15:06.269Z,21.38
2023-10-05T05:17:34.920Z,17.25
2023-10-05T05:20:12.116Z,21.70
2023-10-05T05:22:40.896Z,17.10
2023-10-05T05:25:10.318Z,24.38
2023-10-05T05:27:37.790Z,23.48
2023-10-05T05:30:12.647Z,21.60
2023-10-05T05:32:40.687Z,19.88
2023-10-05T05:35:09.480Z,19.35
2023-10-05T05:37:37.416Z,21.17
2023-10-05T05:40:13.956Z,18.83
2023-10-05T05:42:41.866Z,20.65
2023-10-05T05:45:16.556Z,26.38
2023-10-05T05:47:45.037Z,25.52
2023-10-05T05:50:18.289Z,20.27
2023-10-05T05:52:47.861Z,17.08
2023-10-05T05:55:21.777Z,23.55
2023-10-05T05:57:51.732Z,15.90
2023-10-05T06:00:20.421Z,18.42
2023-10-05T06:02:48.569Z,22.05
2023-10-05T06:05:17.133Z,24.27
2023-10-05T06:07:45.337Z,20.25
2023-10-05T06:10:16.444Z,25.98
2023-10-05T06:12:49.172Z,22.00
2023-10-05T06:15:16.619Z,22.17
2023-10-05T06:17:45.801Z,19.88
2023-10-05T06:20:15.930Z,19.27
2023-10-05T06:22:45.674Z,19.63
2023-10-05T06:25:13.850Z,20.88
2023-10-05T06:27:41.421Z,19.27
2023-10-05T06:30:11.610Z,20.60
2023-10-05T06:32:39.091Z,23.23
2023-10-05T06:35:09.172Z,23.42
2023-10-05T06:37:36.715Z,22.52
2023-10-05T06:40:10.611Z,17.77
2023-10-05T06:45:08.529Z,22.80
2023-10-05T06:47:41.055Z,15.80
2023-10-05T06:50:10.458Z,18.52
2023-10-05T06:52:42.034Z,24.63
2023-10-05T06:55:10.595Z,20.52
2023-10-05T06:57:38.467Z,17.40
2023-10-05T07:00:12.819Z,20.08
2023-10-05T07:02:42.163Z,23.15
2023-10-05T07:05:10.123Z,20.00
2023-10-05T07:07:37.781Z,19.65
2023-10-05T07:10:06.216Z,18.15
2023-10-05T07:12:36.217Z,18.35
2023-10-05T07:15:03.820Z,16.27
2023-10-05T07:17:31.312Z,20.15
2023-10-05T07:20:00.306Z,16.00
2023-10-05T07:22:27.814Z,29.13
2023-10-05T07:24:55.238Z,19.10
2023-10-05T07:27:22.776Z,30.38
2023-10-05T07:29:50.255Z,20.23
2023-10-05T07:32:17.670Z,17.67
2023-10-05T07:34:46.080Z,26.77
2023-10-05T07:37:17.257Z,29.15
2023-10-05T07:39:44.721Z,20.17
2023-10-05T07:42:12.239Z,20.20
2023-10-05T07:44:41.058Z,19.73
2023-10-05T07:47:09.149Z,16.95
2023-10-05T07:49:36.693Z,16.23
2023-10-05T07:52:06.445Z,19.67
2023-10-05T07:54:35.846Z,26.05
2023-10-05T07:57:03.756Z,19.27
2023-10-05T07:59:31.541Z,23.33
2023-10-05T08:01:59.619Z,17.25
2023-10-05T08:04:27.392Z,16.70
2023-10-05T08:06:55.256Z,18.23
2023-10-05T08:09:23.069Z,15.23
2023-10-05T08:11:52.255Z,13.70
2023-10-05T08:14:19.779Z,16.35
2023-10-05T08:16:47.283Z,19.23
2023-10-05T08:19:16.877Z,16.60
2023-10-05T08:21:44.495Z,18.77
2023-10-05T08:24:12.906Z,16.25
2023-10-05T08:26:41.427Z,18.98
2023-10-05T08:29:10.398Z,11.63
2023-10-05T08:31:38.191Z,12.55
2023-10-05T08:34:07.245Z,15.95
2023-10-05T08:36:35.179Z,11.20
2023-10-05T08:39:02.972Z,14.57
2023-10-05T08:41:36.061Z,15.45
2023-10-05T08:44:07.823Z,19.85
2023-10-05T08:46:42.244Z,20.38
2023-10-05T08:49:11.202Z,13.20
2023-10-05T08:51:43.021Z,15.75
2023-10-05T08:54:12.581Z,12.38
2023-10-05T08:56:41.879Z,16.83
2023-10-05T08:59:14.437Z,12.75
2023-10-05T09:01:44.369Z,14.45
2023-10-05T09:04:25.309Z,16.50
2023-10-05T09:06:56.735Z,13.55
2023-10-05T09:09:31.507Z,15.40
2023-10-05T09:11:58.937Z,11.95
2023-10-05T09:14:29.747Z,11.57
2023-10-05T09:17:08.796Z,14.25
2023-10-05T09:19:36.903Z,21.00
2023-10-05T09:22:13.699Z,16.02
2023-10-05T09:24:45.022Z,15.55
2023-10-05T09:27:14.756Z,13.40
2023-10-05T09:29:42.922Z,16.83
2023-10-05T09:32:23.587Z,14.32
2023-10-05T09:34:52.060Z,11.55
2023-10-05T09:37:20.414Z,13.93
2023-10-05T09:39:50.479Z,17.48
2023-10-05T09:42:23.617Z,11.02
2023-10-05T09:44:52.828Z,22.23
2023-10-05T09:47:26.281Z,16.67
2023-10-05T09:49:57.934Z,18.67
2023-10-05T09:52:36.013Z,11.85
2023-10-05T09:55:06.194Z,12.30
2023-10-05T09:57:41.997Z,17.85
2023-10-05T10:00:13.217Z,14.48
2023-10-05T10:02:43.099Z,13.20
2023-10-05T10:05:27.449Z,18.00
2023-10-05T10:07:56.566Z,11.23
2023-10-05T10:10:25.981Z,14.48
2023-10-05T10:12:54.736Z,15.80
2023-10-05T10:15:30.079Z,14.32
2023-10-05T10:18:14.840Z,17.52
2023-10-05T10:20:47.000Z,16.38
2023-10-05T10:23:20.125Z,16.88
2023-10-05T10:25:51.418Z,14.32
2023-10-05T10:28:36.253Z,13.27
2023-10-05T10:31:18.705Z,22.55
2023-10-05T10:33:52.473Z,17.98
2023-10-05T10:36:24.548Z,11.10
2023-10-05T10:38:52.888Z,14.55
2023-10-05T10:41:22.259Z,17.88
2023-10-05T10:43:54.868Z,11.75
2023-10-05T10:46:32.012Z,13.10
2023-10-05T10:49:01.511Z,10.68
2023-10-05T10:51:32.863Z,12.38
2023-10-05T10:54:02.076Z,14.50
2023-10-05T10:56:35.797Z,10.80
2023-10-05T11:01:54.213Z,11.15
2023-10-05T11:04:37.858Z,16.13
2023-10-05T11:07:11.055Z,13.07
2023-10-05T11:09:49.794Z,12.07
2023-10-05T11:12:19.478Z,14.80
2023-10-05T11:14:47.260Z,13.45
2023-10-05T11:17:31.487Z,9.77
2023-10-05T11:20:16.166Z,12.02
2023-10-05T11:22:44.575Z,15.95
2023-10-05T11:25:18.399Z,11.32
2023-10-05T11:27:48.173Z,18.13
2023-10-05T11:30:24.949Z,10.32
2023-10-05T11:34:05.560Z,13.65
2023-10-05T11:35:57.287Z,12.43
2023-10-05T11:38:27.498Z,17.27
2023-10-05T11:40:57.045Z,17.25
2023-10-05T11:43:25.145Z,13.18
2023-10-05T11:46:01.449Z,13.88
2023-10-05T11:48:36.424Z,16.80
2023-10-05T11:51:10.993Z,14.25
2023-10-05T11:53:39.012Z,17.13
2023-10-05T11:56:06.709Z,17.98
2023-10-05T11:58:34.386Z,15.88
2023-10-05T12:01:04.404Z,13.45
2023-10-05T12:03:32.177Z,11.38
2023-10-05T12:06:02.005Z,13.77
2023-10-05T12:08:32.159Z,19.77
2023-10-05T12:11:00.788Z,15.15
2023-10-05T12:13:28.598Z,19.05
2023-10-05T12:15:56.569Z,13.25
2023-10-05T12:18:24.251Z,13.68
2023-10-05T12:20:51.822Z,15.68
2023-10-05T12:23:19.309Z,11.57
2023-10-05T12:25:48.087Z,15.82
2023-10-05T12:28:16.178Z,13.85
2023-10-05T12:30:45.373Z,10.40
2023-10-05T12:33:12.930Z,13.55
2023-10-05T12:35:40.423Z,11.50
2023-10-05T12:38:09.142Z,14.07
2023-10-05T12:40:36.636Z,14.23
2023-10-05T12:45:41.235Z,15.30
2023-10-05T12:48:08.945Z,14.00
2023-10-05T12:50:36.627Z,12.45
2023-10-05T12:53:06.629Z,11.55
2023-10-05T12:55:34.365Z,10.13
2023-10-05T12:58:01.793Z,13.05
2023-10-05T13:00:32.916Z,11.90
2023-10-05T13:03:01.981Z,13.73
2023-10-05T13:05:35.501Z,10.82
2023-10-05T13:08:03.618Z,10.38
2023-10-05T13:10:33.667Z,14.02
2023-10-05T13:13:03.044Z,13.07
2023-10-05T13:15:34.790Z,10.93
2023-10-05T13:18:16.888Z,11.80
2023-10-05T13:20:45.316Z,15.45
2023-10-05T13:23:13.341Z,14.52
2023-10-05T13:25:44.295Z,14.55
2023-10-05T13:28:13.086Z,17.17
2023-10-05T13:30:48.235Z,13.30
2023-10-05T13:33:23.744Z,14.18
2023-10-05T13:35:52.731Z,14.57
2023-10-05T13:38:25.596Z,17.23
2023-10-05T13:41:02.847Z,8.32
2023-10-05T13:43:31.251Z,4.63
2023-10-05T13:46:11.250Z,3.80
2023-10-05T13:48:41.165Z,4.32
2023-10-05T13:51:12.226Z,6.05
2023-10-05T13:53:42.518Z,5.00
2023-10-05T13:56:10.936Z,5.80
2023-10-05T13:58:39.017Z,6.05
2023-10-05T14:01:11.436Z,4.72
2023-10-05T14:03:39.003Z,5.25
2023-10-05T14:06:06.526Z,4.85
2023-10-05T14:08:35.241Z,4.82
2023-10-05T14:11:03.069Z,4.07
2023-10-05T14:13:31.001Z,3.15
2023-10-05T14:16:01.955Z,2.90
2023-10-05T14:18:31.673Z,6.22
2023-10-05T14:20:59.644Z,4.05
2023-10-05T14:23:28.220Z,4.65
2023-10-05T14:25:55.832Z,2.72
2023-10-05T14:28:25.266Z,4.60
2023-10-05T14:30:52.918Z,6.00
2023-10-05T14:33:24.153Z,5.05
2023-10-05T14:35:54.822Z,4.00
2023-10-05T14:38:23.671Z,3.83
2023-10-05T14:40:53.350Z,4.70
2023-10-05T14:43:29.509Z,3.75
2023-10-05T14:45:59.338Z,4.97
2023-10-05T14:48:30.908Z,5.53
2023-10-05T14:51:00.688Z,6.43
2023-10-05T14:53:28.286Z,4.13
2023-10-05T14:55:57.500Z,4.10
2023-10-05T14:58:26.382Z,5.72
2023-10-05T15:00:53.894Z,5.80
2023-10-05T15:03:21.611Z,8.43
2023-10-05T15:05:49.287Z,5.55
2023-10-05T15:08:19.023Z,5.13
2023-10-05T15:10:46.700Z,5.00
2023-10-05T15:13:15.558Z,5.13
2023-10-05T15:15:44.122Z,2.22
2023-10-05T15:18:11.806Z,4.60
2023-10-05T15:20:41.356Z,4.90
2023-10-05T15:23:10.396Z,7.82
2023-10-05T15:25:41.295Z,5.32
2023-10-05T15:28:12.999Z,6.90
2023-10-05T15:30:40.620Z,4.28
2023-10-05T15:33:08.893Z,6.15
2023-10-05T15:35:36.421Z,4.90
2023-10-05T15:38:07.184Z,4.50
2023-10-05T15:40:37.074Z,6.10
2023-10-05T15:43:06.241Z,3.78
2023-10-05T15:45:35.934Z,7.15
2023-10-05T15:48:09.853Z,4.78
2023-10-05T15:50:39.570Z,11.20
2023-10-05T15:53:08.164Z,5.85
2023-10-05T15:55:35.806Z,7.90
2023-10-05T15:58:07.838Z,6.82
2023-10-05T16:00:36.631Z,5.43
2023-10-05T16:03:05.778Z,5.18
2023-10-05T16:05:39.113Z,6.05
2023-10-05T16:08:08.073Z,5.80
2023-10-05T16:10:37.852Z,11.20
2023-10-05T16:13:08.911Z,5.05
2023-10-05T16:15:39.821Z,9.65
2023-10-05T16:18:09.338Z,7.25
2023-10-05T16:20:38.447Z,8.25
2023-10-05T16:23:07.813Z,9.65
2023-10-05T16:25:37.716Z,4.03
2023-10-05T16:28:09.058Z,6.28
2023-10-05T16:30:38.487Z,8.48
2023-10-05T16:33:07.749Z,10.00
2023-10-05T16:35:35.615Z,7.25
2023-10-05T16:38:03.102Z,7.70
2023-10-05T16:40:30.978Z,12.90
2023-10-05T16:42:59.341Z,10.85
2023-10-05T16:45:27.160Z,7.53
2023-10-05T16:47:56.461Z,8.07
2023-10-05T16:50:25.529Z,5.03
2023-10-05T16:52:53.456Z,6.18
2023-10-05T16:55:21.942Z,10.27
2023-10-05T16:57:51.843Z,12.38
2023-10-05T17:00:23.869Z,9.40
2023-10-05T17:02:52.691Z,13.38
2023-10-05T17:05:23.636Z,9.68
2023-10-05T17:07:52.764Z,9.90
2023-10-05T17:10:20.563Z,9.15
2023-10-05T17:12:48.480Z,6.10
2023-10-05T17:15:17.563Z,8.55
2023-10-05T17:17:45.663Z,10.13
2023-10-05T17:20:13.174Z,7.90
2023-10-05T17:22:41.971Z,7.80
2023-10-05T17:25:10.434Z,9.25
2023-10-05T17:27:38.329Z,6.93
2023-10-05T17:30:06.731Z,6.47
2023-10-05T17:32:34.709Z,7.80
2023-10-05T17:35:02.492Z,10.30
2023-10-05T17:37:30.260Z,8.90
2023-10-05T17:39:59.286Z,6.47
2023-10-05T17:42:26.933Z,10.38
2023-10-05T17:44:54.558Z,8.43
2023-10-05T17:47:22.847Z,13.77
2023-10-05T17:49:52.409Z,9.32
2023-10-05T17:52:20.772Z,11.02
2023-10-05T17:54:48.932Z,7.38
2023-10-05T17:57:18.981Z,9.35
2023-10-05T17:59:48.713Z,9.10
2023-10-05T18:02:16.783Z,20.02
2023-10-05T18:04:44.814Z,27.02
2023-10-05T18:07:12.894Z,20.58
2023-10-05T18:09:40.657Z,18.92
2023-10-05T18:12:09.516Z,18.27
2023-10-05T18:14:38.842Z,15.50
2023-10-05T18:17:06.947Z,11.48
2023-10-05T18:19:37.624Z,13.50
2023-10-05T18:22:05.225Z,10.20
2023-10-05T18:24:32.739Z,12.77
2023-10-05T18:27:00.169Z,10.60
2023-10-05T18:29:27.836Z,10.98
2023-10-05T18:31:56.631Z,9.82
2023-10-05T18:34:24.110Z,10.50
2023-10-05T18:36:51.627Z,11.98
2023-10-05T18:39:19.033Z,9.02
2023-10-05T18:41:47.299Z,8.15
2023-10-05T18:44:14.745Z,12.35
2023-10-05T18:46:42.382Z,12.10
2023-10-05T18:49:11.375Z,9.68
2023-10-05T18:51:38.850Z,11.60
2023-10-05T18:54:07.786Z,9.68
2023-10-05T18:56:37.333Z,13.18
2023-10-05T18:59:05.658Z,10.55
2023-10-05T19:01:36.823Z,14.82
2023-10-05T19:04:05.647Z,12.73
2023-10-05T19:06:35.839Z,14.85
2023-10-05T19:09:03.483Z,13.75
2023-10-05T19:11:30.910Z,14.75
2023-10-05T19:13:58.503Z,12.60
2023-10-05T19:16:26.017Z,15.77
2023-10-05T19:18:53.486Z,12.18
2023-10-05T19:21:22.629Z,11.63
2023-10-05T19:23:51.330Z,11.35
2023-10-05T19:26:18.939Z,12.00
2023-10-05T19:28:46.402Z,13.05
2023-10-05T19:31:18.323Z,16.52
2023-10-05T19:33:45.990Z,14.35
2023-10-05T19:36:13.559Z,11.30
2023-10-05T19:38:40.971Z,13.60
2023-10-05T19:41:09.890Z,12.52
2023-10-05T19:43:37.358Z,13.05
2023-10-05T19:46:05.257Z,12.50
2023-10-05T19:48:32.716Z,13.45
2023-10-05T19:51:00.110Z,11.35
2023-10-05T19:53:28.363Z,18.85
2023-10-05T19:55:56.780Z,12.95
2023-10-05T19:58:25.602Z,14.10
2023-10-05T20:00:53.307Z,17.17
2023-10-05T20:03:20.844Z,12.75
2023-10-05T20:05:48.458Z,15.60
2023-10-05T20:08:16.411Z,16.05
2023-10-05T20:10:43.862Z,17.98
2023-10-05T20:13:11.806Z,16.85
2023-10-05T20:15:41.613Z,21.98
2023-10-05T20:18:09.379Z,11.73
2023-10-05T20:20:37.057Z,20.50
2023-10-05T20:23:05.844Z,18.92
2023-10-05T20:25:33.754Z,20.90
2023-10-05T20:28:01.240Z,20.85
2023-10-05T20:30:30.275Z,18.98
2023-10-05T20:33:00.049Z,20.08
2023-10-05T20:35:27.466Z,21.02
2023-10-05T20:37:54.963Z,19.25
2023-10-05T20:40:22.612Z,23.42
2023-10-05T20:42:50.062Z,20.73
2023-10-05T20:45:17.600Z,24.70
2023-10-05T20:47:45.086Z,19.40
2023-10-05T20:50:13.836Z,20.10
2023-10-05T20:52:41.284Z,21.35
2023-10-05T20:55:09.483Z,24.42
2023-10-05T20:57:36.887Z,21.27
2023-10-05T21:00:08.157Z,21.17
2023-10-05T21:02:35.579Z,23.45
2023-10-05T21:05:03.168Z,23.73
2023-10-05T21:07:31.994Z,26.67
2023-10-05T21:10:00.324Z,29.75
2023-10-05T21:12:27.837Z,23.77
2023-10-05T21:14:55.246Z,21.27
2023-10-05T21:17:23.720Z,32.08
2023-10-05T21:19:51.427Z,26.30
2023-10-05T21:22:18.837Z,41.63
2023-10-05T21:24:47.552Z,44.22
2023-10-05T21:27:15.660Z,24.27
2023-10-05T21:29:43.063Z,35.85
2023-10-05T21:32:10.553Z,55.00
2023-10-05T21:34:38.055Z,51.55
2023-10-05T21:37:05.804Z,60.85
2023-10-05T21:39:33.860Z,30.17
2023-10-05T21:42:02.846Z,31.35
2023-10-05T21:44:32.472Z,26.55
2023-10-05T21:47:00.106Z,29.73
2023-10-05T21:49:27.679Z,25.95
2023-10-05T21:51:55.090Z,25.13
2023-10-05T21:54:22.487Z,25.10
2023-10-05T21:56:49.939Z,60.55
2023-10-05T21:59:20.796Z,26.95
2023-10-05T22:01:48.333Z,29.05
2023-10-05T22:04:15.780Z,25.05
2023-10-05T22:06:43.204Z,23.90
2023-10-05T22:09:12.780Z,29.80
2023-10-05T22:11:40.245Z,42.25
2023-10-05T22:14:08.251Z,36.30
2023-10-05T22:16:37.055Z,54.58
2023-10-05T22:19:05.303Z,82.80
2023-10-05T22:21:34.899Z,54.28
2023-10-05T22:24:02.793Z,32.28
2023-10-05T22:26:30.210Z,36.85
2023-10-05T22:28:57.672Z,62.65
2023-10-05T22:31:25.080Z,43.78
2023-10-05T22:33:54.091Z,68.00
2023-10-05T22:36:21.527Z,33.92
2023-10-05T22:38:48.992Z,52.80
2023-10-05T22:41:16.381Z,36.53
2023-10-05T22:43:44.605Z,94.72
2023-10-05T22:46:13.351Z,89.45
2023-10-05T22:48:40.777Z,71.20
2023-10-05T22:51:15.644Z,117.32
2023-10-05T22:53:43.056Z,117.95
2023-10-05T22:56:10.470Z,30.52
2023-10-05T22:58:37.992Z,68.45
2023-10-05T23:01:05.443Z,101.97
2023-10-05T23:03:33.108Z,63.42
2023-10-05T23:06:00.593Z,80.82
2023-10-05T23:08:29.744Z,69.20
2023-10-05T23:10:57.160Z,93.55
2023-10-05T23:13:24.852Z,52.58
2023-10-05T23:15:52.241Z,51.25
2023-10-05T23:18:19.990Z,56.40
2023-10-05T23:20:48.844Z,49.50
2023-10-05T23:23:16.453Z,43.28
2023-10-05T23:25:45.182Z,48.85
2023-10-05T23:28:15.904Z,34.65
2023-10-05T23:30:47.054Z,42.45
2023-10-05T23:33:14.567Z,32.90
2023-10-05T23:35:42.060Z,35.65
2023-10-05T23:38:13.163Z,44.25
2023-10-05T23:40:44.540Z,30.60
2023-10-05T23:43:17.158Z,45.78
2023-10-05T23:45:47.383Z,33.88
2023-10-05T23:48:15.886Z,37.28
2023-10-05T23:50:43.464Z,42.58
2023-10-05T23:53:11.611Z,58.90
2023-10-05T23:55:44.521Z,49.75
2023-10-05T23:58:15.344Z,70.82
